Time;durP1;ratioP1;P1;durP2;ratioP2;P2;SDS_P1;SDS_P2;PMS_P1;PMS_P2;Temp;Humidity;BMP_temperature;BMP_pressure;BME280_temperature;BME280_humidity;BME280_pressure;Samples;Min_cycle;Max_cycle;Signal;HPM_P1;HPM_P2
2021/06/20 00:00:33;;;;;;;6.07;3.30;;;;;;;18.67;93.43;94780.13;5115621;28;20476;-76
2021/06/20 00:03:03;;;;;;;3.47;3.17;;;;;;;18.65;93.52;94782.97;5115362;28;20481;-74
2021/06/20 00:05:32;;;;;;;5.10;2.97;;;;;;;18.63;93.25;94784.16;5115608;28;20445;-75
2021/06/20 00:08:00;;;;;;;3.40;3.20;;;;;;;18.62;93.32;94783.34;5115155;28;20477;-75
2021/06/20 00:10:29;;;;;;;8.60;3.40;;;;;;;18.62;93.17;94771.84;5115197;28;20449;-74
2021/06/20 00:12:58;;;;;;;9.90;3.37;;;;;;;18.59;93.14;94765.06;5114876;28;20445;-74
2021/06/20 00:15:26;;;;;;;5.87;4.03;;;;;;;18.51;92.62;94763.31;5115080;28;20451;-74
2021/06/20 00:17:53;;;;;;;3.50;3.20;;;;;;;18.48;93.09;94773.47;5115518;28;20444;-74
2021/06/20 00:20:25;;;;;;;3.00;2.77;;;;;;;18.46;93.28;94760.38;5115042;28;20504;-75
2021/06/20 00:22:53;;;;;;;4.20;3.13;;;;;;;18.46;93.41;94755.03;5114764;28;20541;-74
2021/06/20 00:25:20;;;;;;;7.10;3.30;;;;;;;18.46;93.96;94763.03;5114720;28;20575;-75
2021/06/20 00:27:48;;;;;;;3.27;3.07;;;;;;;18.47;94.03;94775.28;5115181;28;20450;-74
2021/06/20 00:30:17;;;;;;;3.30;3.10;;;;;;;18.46;93.88;94776.31;5114585;28;20804;-75
2021/06/20 00:32:45;;;;;;;4.60;3.27;;;;;;;18.48;94.40;94768.16;5114741;28;20932;-74
2021/06/20 00:35:13;;;;;;;3.60;3.13;;;;;;;18.48;94.58;94766.31;5114526;28;20509;-75
2021/06/20 00:37:42;;;;;;;5.50;3.40;;;;;;;18.51;94.71;94778.44;5114693;28;20992;-75
2021/06/20 00:40:09;;;;;;;3.50;3.20;;;;;;;18.56;94.64;94771.56;5062228;28;20475;-75
2021/06/20 00:42:37;;;;;;;4.10;3.20;;;;;;;18.61;94.45;94764.88;5113885;28;20491;-74
2021/06/20 00:45:07;;;;;;;4.23;3.20;;;;;;;18.65;94.28;94771.50;5114373;28;20443;-75
2021/06/20 00:47:34;;;;;;;6.10;3.47;;;;;;;18.67;94.20;94770.31;5114498;28;20481;-74
2021/06/20 00:50:01;;;;;;;4.10;2.97;;;;;;;18.69;93.99;94770.13;5114501;28;20435;-74
2021/06/20 00:52:29;;;;;;;3.43;3.13;;;;;;;18.71;94.03;94757.47;5114321;28;20453;-75
2021/06/20 00:54:58;;;;;;;5.23;3.77;;;;;;;18.66;93.46;94754.56;5114343;28;20446;-74
2021/06/20 00:57:26;;;;;;;5.10;3.23;;;;;;;18.65;93.32;94759.06;5114517;28;20507;-74
2021/06/20 00:59:53;;;;;;;8.63;2.83;;;;;;;18.65;93.07;94755.56;5114216;28;20493;-75
2021/06/20 01:02:21;;;;;;;5.70;3.13;;;;;;;18.62;92.74;94755.91;5114372;28;20487;-75
2021/06/20 01:04:50;;;;;;;8.67;3.30;;;;;;;18.62;92.76;94753.25;5114137;28;20445;-75
2021/06/20 01:07:19;;;;;;;3.70;3.40;;;;;;;18.60;92.44;94744.63;5061625;28;20502;-74
2021/06/20 01:09:46;;;;;;;3.53;3.33;;;;;;;18.57;91.95;94743.16;5114333;28;20443;-74
2021/06/20 01:12:16;;;;;;;4.23;3.93;;;;;;;18.55;92.13;94745.19;5113893;28;20458;-74
2021/06/20 01:14:45;;;;;;;2.77;2.47;;;;;;;18.47;92.21;94738.09;5113992;28;20445;-74
2021/06/20 01:17:14;;;;;;;3.20;3.00;;;;;;;18.43;92.72;94734.16;5061820;28;20441;-74
2021/06/20 01:19:43;;;;;;;5.73;3.40;;;;;;;18.39;92.83;94735.53;5114124;28;20494;-74
2021/06/20 01:22:25;;;;;;;3.23;2.93;;;;;;;18.37;93.24;94739.38;5113833;28;20527;-74
2021/06/20 01:24:54;;;;;;;7.33;2.73;;;;;;;18.33;93.44;94738.91;5113928;28;20448;-74
2021/06/20 01:27:23;;;;;;;5.00;3.00;;;;;;;18.31;93.42;94732.97;5061399;28;20469;-74
2021/06/20 01:29:50;;;;;;;3.10;2.90;;;;;;;18.30;93.64;94731.31;5113758;28;20508;-74
2021/06/20 01:32:18;;;;;;;3.40;3.10;;;;;;;18.29;93.85;94734.16;5113668;28;20453;-74
2021/06/20 01:34:46;;;;;;;5.70;2.67;;;;;;;18.29;93.80;94740.28;5113717;28;20452;-75
2021/06/20 01:37:17;;;;;;;3.30;3.00;;;;;;;18.29;93.56;94745.59;5113873;28;20441;-74
2021/06/20 01:39:44;;;;;;;3.40;2.70;;;;;;;18.28;93.71;94754.59;5113632;28;20441;-74
2021/06/20 01:42:13;;;;;;;5.57;4.00;;;;;;;18.32;93.37;94755.88;5113503;28;20541;-74
2021/06/20 01:44:49;;;;;;;6.97;3.00;;;;;;;18.31;93.22;94754.22;5113535;28;20448;-73
2021/06/20 01:47:16;;;;;;;4.27;2.97;;;;;;;18.30;93.46;94755.22;5113377;28;20529;-74
2021/06/20 01:49:44;;;;;;;5.53;3.87;;;;;;;18.28;93.51;94751.94;5113517;28;20445;-74
2021/06/20 01:52:11;;;;;;;7.70;3.60;;;;;;;18.27;93.39;94750.28;5114437;28;20450;-74
2021/06/20 01:54:50;;;;;;;6.03;3.10;;;;;;;18.24;93.67;94751.47;5117771;28;20466;-75
2021/06/20 01:57:18;;;;;;;3.83;3.47;;;;;;;18.22;93.61;94750.81;5070012;28;20449;-74
2021/06/20 01:59:46;;;;;;;4.33;3.03;;;;;;;18.22;93.86;94765.94;5032335;28;20900;-74
2021/06/20 02:02:14;;;;;;;3.97;3.30;;;;;;;18.21;93.44;94772.22;5064889;28;20787;-74
2021/06/20 02:04:44;;;;;;;6.30;3.10;;;;;;;18.20;93.73;94766.09;5117833;28;20493;-73
2021/06/20 02:07:12;;;;;;;4.40;3.20;;;;;;;18.16;93.54;94764.78;5117499;28;20476;-74
2021/06/20 02:09:41;;;;;;;5.20;2.47;;;;;;;18.10;93.59;94760.22;5118119;28;20769;-75
2021/06/20 02:12:10;;;;;;;3.20;3.00;;;;;;;18.07;93.66;94760.56;5117689;28;20441;-73
2021/06/20 02:14:38;;;;;;;5.30;3.10;;;;;;;18.05;94.17;94770.53;5117532;28;20829;-73
2021/06/20 02:17:19;;;;;;;3.23;3.03;;;;;;;18.04;94.08;94773.38;5117456;28;20442;-74
2021/06/20 02:19:46;;;;;;;7.83;3.07;;;;;;;18.03;94.26;94761.94;5117252;28;20447;-74
2021/06/20 02:22:13;;;;;;;3.50;3.20;;;;;;;18.02;93.99;94770.06;5064618;28;20480;-74
2021/06/20 02:24:42;;;;;;;3.93;3.30;;;;;;;18.02;94.28;94772.75;5064661;28;20490;-74
2021/06/20 02:27:10;;;;;;;3.37;3.07;;;;;;;18.00;94.36;94770.25;5117643;28;20544;-74
2021/06/20 02:29:37;;;;;;;3.30;3.10;;;;;;;17.98;94.57;94780.22;5117100;28;20456;-74
2021/06/20 02:32:05;;;;;;;3.80;3.40;;;;;;;17.99;94.48;94771.25;5117611;28;20451;-73
2021/06/20 02:34:32;;;;;;;4.47;3.63;;;;;;;17.99;94.83;94767.78;5116910;28;20931;-74
2021/06/20 02:36:59;;;;;;;3.27;2.97;;;;;;;17.99;94.52;94773.09;5117356;28;20520;-74
2021/06/20 02:39:26;;;;;;;6.03;3.43;;;;;;;17.95;94.67;94773.44;5116990;28;20502;-73
2021/06/20 02:41:54;;;;;;;3.27;2.97;;;;;;;17.92;94.77;94773.78;5117066;28;20519;-74
2021/06/20 02:44:21;;;;;;;3.27;2.97;;;;;;;17.93;94.94;94770.16;5064426;28;20493;-74
2021/06/20 02:46:48;;;;;;;4.50;2.97;;;;;;;17.95;94.84;94775.28;5117075;28;20479;-74
2021/06/20 02:49:15;;;;;;;3.70;3.43;;;;;;;17.95;94.77;94773.44;5116681;28;20472;-74
2021/06/20 02:51:43;;;;;;;3.40;3.20;;;;;;;17.97;94.41;94778.59;5097971;28;20478;-74
2021/06/20 02:54:11;;;;;;;3.77;3.33;;;;;;;17.96;94.28;94766.31;5117028;28;20442;-74
2021/06/20 02:56:38;;;;;;;6.43;3.10;;;;;;;17.99;94.28;94773.09;5116637;28;20439;-74
2021/06/20 02:59:06;;;;;;;3.40;3.20;;;;;;;17.96;94.27;94779.59;5116549;28;20772;-74
2021/06/20 03:01:34;;;;;;;7.63;4.03;;;;;;;17.95;94.15;94778.75;5116367;28;20448;-74
2021/06/20 03:04:01;;;;;;;4.80;3.27;;;;;;;17.95;94.60;94778.75;5116006;28;21009;-74
2021/06/20 03:06:28;;;;;;;5.00;3.67;;;;;;;17.92;94.25;94771.13;5116602;28;20446;-75
2021/06/20 03:08:55;;;;;;;5.83;4.47;;;;;;;17.93;94.68;94770.16;5064094;28;20451;-74
2021/06/20 03:11:22;;;;;;;3.03;2.73;;;;;;;17.98;94.56;94774.09;5064330;28;20444;-74
2021/06/20 03:13:50;;;;;;;4.97;3.20;;;;;;;18.02;94.77;94776.22;5116378;28;20454;-74
2021/06/20 03:16:20;;;;;;;4.90;2.93;;;;;;;18.04;94.56;94766.25;5116162;28;20441;-74
2021/06/20 03:18:48;;;;;;;4.70;3.70;;;;;;;18.06;94.57;94756.25;5116661;28;20782;-74
2021/06/20 03:21:16;;;;;;;10.53;3.40;;;;;;;18.13;94.79;94764.34;5116133;28;20922;-74
2021/06/20 03:23:44;;;;;;;3.50;3.20;;;;;;;18.27;94.85;94767.03;5116213;28;20489;-74
2021/06/20 03:26:12;;;;;;;3.17;2.97;;;;;;;18.47;93.89;94759.34;5116300;28;20483;-74
2021/06/20 03:28:39;;;;;;;3.00;2.80;;;;;;;18.72;92.51;94757.31;5116002;28;21059;-74
2021/06/20 03:31:06;;;;;;;4.03;2.57;;;;;;;18.98;90.96;94758.69;5116251;28;20452;-74
2021/06/20 03:33:35;;;;;;;8.27;3.63;;;;;;;19.26;89.50;94758.81;5115764;28;20840;-74
2021/06/20 03:36:03;;;;;;;5.27;2.60;;;;;;;19.60;87.38;94753.72;5115933;28;20449;-74
2021/06/20 03:38:31;;;;;;;2.90;2.57;;;;;;;19.97;85.46;94765.16;5115801;28;20448;-74
2021/06/20 03:40:58;;;;;;;2.70;2.50;;;;;;;20.41;83.81;94771.09;5115728;28;20448;-74
2021/06/20 03:43:25;;;;;;;6.40;2.60;;;;;;;20.84;81.47;94765.66;5115667;28;20528;-74
2021/06/20 03:45:52;;;;;;;5.87;3.13;;;;;;;21.28;79.46;94777.81;5115606;28;20519;-74
2021/06/20 03:48:19;;;;;;;5.53;2.30;;;;;;;21.72;77.27;94776.56;5115638;28;20480;-74
2021/06/20 03:50:47;;;;;;;3.40;2.40;;;;;;;22.11;75.43;94779.34;5115730;28;20510;-74
2021/06/20 03:53:14;;;;;;;3.13;2.53;;;;;;;22.43;73.16;94766.19;5079644;28;20440;-74
2021/06/20 03:55:42;;;;;;;5.27;3.03;;;;;;;22.68;72.09;94772.56;5115449;28;20987;-74
2021/06/20 03:58:09;;;;;;;2.77;2.57;;;;;;;22.99;70.97;94771.09;5115867;28;20468;-74
2021/06/20 04:00:37;;;;;;;2.83;2.63;;;;;;;23.32;70.10;94773.69;5115359;28;20503;-74
2021/06/20 04:03:05;;;;;;;2.50;2.40;;;;;;;23.59;68.36;94766.41;5115385;28;20971;-74
2021/06/20 04:05:32;;;;;;;2.67;2.20;;;;;;;23.78;67.72;94769.00;5115382;28;20445;-74
2021/06/20 04:08:01;;;;;;;2.63;2.40;;;;;;;24.04;66.48;94781.44;5115303;28;20449;-74
2021/06/20 04:10:28;;;;;;;2.40;2.20;;;;;;;24.32;65.43;94781.06;5115189;28;20442;-74
2021/06/20 04:12:55;;;;;;;6.77;2.30;;;;;;;24.56;64.55;94781.28;5115433;28;20447;-74
2021/06/20 04:15:22;;;;;;;2.70;2.13;;;;;;;24.81;63.96;94778.59;5114285;28;20443;-74
2021/06/20 04:17:49;;;;;;;2.77;2.57;;;;;;;25.06;62.88;94781.28;5114746;28;20450;-74
2021/06/20 04:20:16;;;;;;;6.03;2.60;;;;;;;25.26;61.85;94780.03;5114820;28;20443;-75
2021/06/20 04:22:44;;;;;;;2.30;2.10;;;;;;;25.46;61.36;94784.38;5114868;28;20487;-75
2021/06/20 04:25:15;;;;;;;2.27;2.07;;;;;;;25.62;61.07;94781.06;5062192;28;20906;-73
2021/06/20 04:27:43;;;;;;;3.80;2.27;;;;;;;25.81;60.33;94785.41;5114902;28;20518;-74
2021/06/20 04:30:12;;;;;;;5.77;2.80;;;;;;;26.01;58.94;94779.72;5114815;28;20946;-74
2021/06/20 04:32:40;;;;;;;4.97;2.10;;;;;;;26.19;58.52;94784.25;5114721;28;20845;-74
2021/06/20 04:35:08;;;;;;;2.50;2.27;;;;;;;26.37;57.76;94788.78;5114700;28;20443;-74
2021/06/20 04:37:35;;;;;;;3.30;2.50;;;;;;;26.51;57.28;94782.97;5114691;28;20504;-74
2021/06/20 04:40:04;;;;;;;2.63;2.00;;;;;;;26.74;57.03;94781.38;5114627;28;20478;-74
2021/06/20 04:42:35;;;;;;;2.20;2.10;;;;;;;27.04;56.39;94775.91;5114196;28;20993;-74
2021/06/20 04:45:04;;;;;;;3.47;2.30;;;;;;;27.29;55.46;94783.75;5114793;28;20795;-74
2021/06/20 04:47:31;;;;;;;5.03;2.27;;;;;;;27.44;55.10;94773.28;5114896;28;20479;-74
2021/06/20 04:49:58;;;;;;;4.53;2.33;;;;;;;27.69;54.27;94776.53;5114328;28;20439;-74
2021/06/20 04:52:26;;;;;;;4.80;2.37;;;;;;;27.89;53.86;94783.41;5114341;28;20858;-74
2021/06/20 04:54:54;;;;;;;2.37;2.17;;;;;;;27.99;53.25;94797.06;5061909;28;20484;-74
2021/06/20 04:57:22;;;;;;;3.17;2.90;;;;;;;28.12;52.62;94793.28;5114103;28;20783;-75
2021/06/20 04:59:52;;;;;;;3.17;1.83;;;;;;;28.31;52.78;94790.16;5114070;28;20782;-74
2021/06/20 05:02:20;;;;;;;3.93;1.93;;;;;;;28.56;51.58;94789.78;5113797;28;20439;-74
2021/06/20 05:04:47;;;;;;;4.37;2.10;;;;;;;28.74;51.79;94794.16;5114137;28;20500;-74
2021/06/20 05:07:15;;;;;;;4.00;2.50;;;;;;;28.94;51.64;94791.00;5114132;28;20447;-75
2021/06/20 05:09:43;;;;;;;7.33;2.30;;;;;;;29.13;52.19;94794.22;5113939;28;20447;-74
2021/06/20 05:12:11;;;;;;;2.70;2.50;;;;;;;28.57;51.41;94801.41;5114014;28;20447;-74
2021/06/20 05:14:42;;;;;;;2.47;2.30;;;;;;;28.74;52.66;94796.84;5113996;28;20516;-74
2021/06/20 05:17:11;;;;;;;5.20;2.70;;;;;;;28.51;52.86;94795.09;5114362;28;20447;-74
2021/06/20 05:19:39;;;;;;;3.60;3.40;;;;;;;28.10;54.38;94796.22;5113717;28;20952;-75
2021/06/20 05:22:06;;;;;;;2.83;2.63;;;;;;;27.77;55.69;94786.13;5114050;28;20501;-74
2021/06/20 05:24:33;;;;;;;4.20;3.17;;;;;;;27.40;56.45;94797.19;5113781;28;20572;-74
2021/06/20 05:27:00;;;;;;;6.70;2.90;;;;;;;27.53;56.17;94798.81;5113420;28;20868;-74
2021/06/20 05:29:27;;;;;;;2.87;2.67;;;;;;;27.71;56.96;94792.47;5113638;28;20446;-74
2021/06/20 05:31:54;;;;;;;5.40;3.10;;;;;;;27.80;56.02;94795.63;5114072;28;20438;-74
2021/06/20 05:34:23;;;;;;;3.50;2.80;;;;;;;27.54;56.36;94786.97;5113638;28;20455;-75
2021/06/20 05:36:50;;;;;;;5.90;3.60;;;;;;;26.93;57.13;94795.56;5061911;28;20451;-74
2021/06/20 05:39:17;;;;;;;4.80;4.47;;;;;;;25.67;62.69;94788.47;5061443;28;20942;-75
2021/06/20 05:41:44;;;;;;;6.70;4.63;;;;;;;25.45;63.42;94788.91;5061723;28;20531;-74
2021/06/20 05:44:11;;;;;;;5.77;4.57;;;;;;;25.09;65.32;94781.66;5061536;28;20513;-74
2021/06/20 05:46:38;;;;;;;7.70;4.60;;;;;;;24.98;65.45;94793.09;5113446;28;20527;-74
2021/06/20 05:49:05;;;;;;;4.90;3.87;;;;;;;24.82;65.79;94790.97;5095775;28;20923;-75
2021/06/20 05:51:34;;;;;;;5.40;4.63;;;;;;;24.67;67.18;94786.75;5113434;28;20479;-75
2021/06/20 05:54:01;;;;;;;19.13;6.27;;;;;;;23.91;68.93;94796.75;5113485;28;20450;-74
2021/06/20 05:56:29;;;;;;;6.60;4.93;;;;;;;23.61;69.44;94780.41;5113408;28;20448;-74
2021/06/20 05:58:57;;;;;;;6.80;5.70;;;;;;;22.81;73.45;94785.94;5113409;28;20519;-73
2021/06/20 06:01:24;;;;;;;7.97;6.23;;;;;;;22.80;74.62;94784.28;5113260;28;20469;-74
2021/06/20 06:03:51;;;;;;;8.87;6.63;;;;;;;22.22;77.29;94785.91;5113458;28;20562;-74
2021/06/20 06:06:18;;;;;;;5.87;5.23;;;;;;;22.00;78.23;94773.75;5113207;28;20441;-74
2021/06/20 06:08:47;;;;;;;9.83;5.03;;;;;;;22.14;78.39;94772.75;5113339;28;20454;-73
2021/06/20 06:11:14;;;;;;;8.27;5.13;;;;;;;22.15;79.50;94772.56;5113451;28;20482;-74
2021/06/20 06:13:41;;;;;;;5.40;4.90;;;;;;;22.14;77.68;94770.91;5113559;28;20510;-75
2021/06/20 06:16:08;;;;;;;6.10;5.50;;;;;;;22.18;79.05;94763.31;5113356;28;20446;-74
2021/06/20 06:18:35;;;;;;;9.73;5.40;;;;;;;22.13;78.88;94763.91;5113251;28;20891;-75
2021/06/20 06:21:02;;;;;;;8.47;6.47;;;;;;;21.78;81.75;94767.75;5113154;28;20511;-74
2021/06/20 06:23:29;;;;;;;7.53;6.20;;;;;;;21.92;82.17;94759.53;5113027;28;20486;-74
2021/06/20 06:25:57;;;;;;;8.50;7.30;;;;;;;21.77;82.49;94768.75;5113339;28;20502;-74
2021/06/20 06:28:24;;;;;;;7.90;6.33;;;;;;;21.59;82.31;94759.47;5060292;28;20457;-74
2021/06/20 06:30:51;;;;;;;8.50;6.40;;;;;;;21.64;81.92;94761.53;5077362;28;20437;-74
2021/06/20 06:33:18;;;;;;;9.90;7.03;;;;;;;21.37;82.90;94759.78;5113004;28;20477;-75
2021/06/20 06:35:45;;;;;;;7.60;6.83;;;;;;;21.26;84.62;94754.00;5113149;28;20852;-74
2021/06/20 06:38:12;;;;;;;9.33;7.37;;;;;;;21.33;85.38;94754.84;5113145;28;20515;-74
2021/06/20 06:40:39;;;;;;;8.47;6.50;;;;;;;21.44;83.87;94756.13;5116298;28;20993;-74
2021/06/20 06:43:08;;;;;;;8.70;6.37;;;;;;;21.76;81.55;94751.09;5116673;28;20513;-75
2021/06/20 06:45:35;;;;;;;5.07;4.67;;;;;;;22.38;79.81;94750.78;5116533;28;20514;-74
2021/06/20 06:48:02;;;;;;;6.30;5.70;;;;;;;22.86;75.95;94754.06;5116686;28;20474;-75
2021/06/20 06:50:29;;;;;;;9.13;5.07;;;;;;;23.40;75.17;94752.84;5116678;28;20527;-74
2021/06/20 06:52:57;;;;;;;2.30;2.20;;;;;;;23.84;65.15;94759.25;5116801;28;20501;-74
2021/06/20 06:55:24;;;;;;;3.40;2.80;;;;;;;24.08;63.33;94758.50;5116561;28;20455;-74
2021/06/20 06:57:51;;;;;;;2.57;2.40;;;;;;;24.19;61.19;94777.59;5116607;28;20502;-74
2021/06/20 07:00:21;;;;;;;3.53;2.93;;;;;;;24.02;63.36;94772.78;5116409;28;20778;-74
2021/06/20 07:02:48;;;;;;;3.90;3.07;;;;;;;23.93;64.16;94754.47;5116397;28;20442;-74
2021/06/20 07:05:15;;;;;;;3.13;2.80;;;;;;;23.90;64.81;94763.75;5116202;28;20488;-74
2021/06/20 07:07:42;;;;;;;5.17;3.27;;;;;;;23.87;65.43;94764.19;5116614;28;20493;-74
2021/06/20 07:10:10;;;;;;;3.70;3.40;;;;;;;24.18;65.49;94773.28;5116599;28;20452;-74
2021/06/20 07:12:37;;;;;;;3.03;2.73;;;;;;;24.32;63.63;94767.66;5097218;28;20442;-75
2021/06/20 07:15:05;;;;;;;3.07;2.87;;;;;;;24.61;60.94;94771.56;5116072;28;20454;-74
2021/06/20 07:17:34;;;;;;;3.37;3.07;;;;;;;24.99;61.23;94767.91;5115996;28;20491;-74
2021/06/20 07:20:02;;;;;;;5.53;3.10;;;;;;;25.09;58.20;94768.22;5116019;28;21007;-75
2021/06/20 07:22:31;;;;;;;3.00;2.80;;;;;;;25.53;59.97;94768.97;5115934;28;20504;-74
2021/06/20 07:24:58;;;;;;;3.00;2.80;;;;;;;25.92;56.86;94760.41;5116062;28;20895;-74
2021/06/20 07:27:25;;;;;;;3.50;3.20;;;;;;;26.02;56.10;94756.34;5115978;28;20492;-75
2021/06/20 07:29:52;;;;;;;3.23;3.00;;;;;;;26.18;56.30;94750.34;5116109;28;20447;-75
2021/06/20 07:32:19;;;;;;;4.40;3.17;;;;;;;26.50;56.29;94749.03;5115850;28;20442;-74
2021/06/20 07:34:51;;;;;;;4.33;4.03;;;;;;;26.35;54.33;94748.66;5116056;28;20447;-74
2021/06/20 07:37:18;;;;;;;5.30;4.80;;;;;;;26.35;55.03;94747.84;5115808;28;20521;-74
2021/06/20 07:39:45;;;;;;;6.03;3.20;;;;;;;26.59;54.00;94751.38;5115820;28;20447;-74
2021/06/20 07:42:12;;;;;;;4.67;3.37;;;;;;;26.73;54.71;94739.34;5115583;28;20471;-74
2021/06/20 07:44:39;;;;;;;4.60;3.70;;;;;;;26.95;53.77;94734.19;5115497;28;20540;-74
2021/06/20 07:47:06;;;;;;;4.20;3.80;;;;;;;27.24;52.92;94732.44;5115637;28;20470;-74
2021/06/20 07:49:33;;;;;;;6.03;3.50;;;;;;;27.41;53.37;94726.06;5115569;28;20478;-74
2021/06/20 07:52:01;;;;;;;3.80;3.30;;;;;;;27.27;51.50;94729.25;5115372;28;20608;-74
2021/06/20 07:54:28;;;;;;;3.77;3.47;;;;;;;27.50;52.86;94723.81;5115381;28;20475;-74
2021/06/20 07:56:55;;;;;;;6.17;3.77;;;;;;;27.73;52.45;94726.44;5115396;28;20500;-74
2021/06/20 07:59:22;;;;;;;5.83;3.00;;;;;;;27.79;49.67;94729.28;5115277;28;20515;-75
2021/06/20 08:01:49;;;;;;;4.23;2.83;;;;;;;27.95;48.92;94728.47;5115658;28;20434;-74
2021/06/20 08:04:16;;;;;;;2.10;2.00;;;;;;;28.08;49.19;94730.91;5115285;28;21059;-74
2021/06/20 08:06:43;;;;;;;5.43;2.53;;;;;;;28.27;48.58;94726.09;5115123;28;20500;-74
2021/06/20 08:09:12;;;;;;;2.07;1.97;;;;;;;28.40;47.67;94735.78;5115187;28;20473;-75
2021/06/20 08:11:39;;;;;;;5.10;2.60;;;;;;;28.53;48.12;94727.34;5115185;28;20918;-74
2021/06/20 08:14:06;;;;;;;2.70;2.50;;;;;;;28.20;46.45;94728.13;5115244;28;20451;-74
2021/06/20 08:16:33;;;;;;;5.20;2.90;;;;;;;28.14;48.10;94729.91;5115134;28;20443;-74
2021/06/20 08:19:00;;;;;;;3.50;2.80;;;;;;;27.95;48.12;94723.91;5115124;28;20447;-74
2021/06/20 08:21:28;;;;;;;3.67;2.80;;;;;;;27.77;49.56;94732.22;5115030;28;20443;-74
2021/06/20 08:23:55;;;;;;;3.00;2.80;;;;;;;27.63;50.93;94734.34;5114931;28;20491;-74
2021/06/20 08:26:23;;;;;;;2.47;2.27;;;;;;;27.62;48.33;94732.72;5114830;28;20435;-74
2021/06/20 08:28:50;;;;;;;4.10;3.80;;;;;;;27.39;51.56;94730.03;5078890;28;20440;-74
2021/06/20 08:31:17;;;;;;;5.37;4.00;;;;;;;27.18;52.63;94734.22;5062299;28;20491;-74
2021/06/20 08:33:44;;;;;;;4.90;3.90;;;;;;;27.17;54.44;94738.75;5062165;28;20443;-75
2021/06/20 08:36:11;;;;;;;8.13;4.50;;;;;;;27.11;53.49;94728.09;5061950;28;20450;-74
2021/06/20 08:38:38;;;;;;;4.20;3.80;;;;;;;27.09;55.86;94731.03;5114575;28;20447;-74
2021/06/20 08:41:06;;;;;;;3.70;3.23;;;;;;;27.11;54.29;94741.56;5114362;28;20446;-75
2021/06/20 08:43:35;;;;;;;5.07;3.17;;;;;;;26.97;50.45;94735.59;5114532;28;20439;-74
2021/06/20 08:46:02;;;;;;;3.73;3.43;;;;;;;26.40;52.92;94734.50;5114589;28;20942;-74
2021/06/20 08:48:29;;;;;;;3.17;2.87;;;;;;;26.34;54.03;94738.13;5114308;28;20492;-74
2021/06/20 08:50:56;;;;;;;3.70;3.40;;;;;;;26.10;56.23;94742.59;5114542;28;20492;-74
2021/06/20 08:53:23;;;;;;;5.53;3.53;;;;;;;25.97;54.65;94740.91;5114208;28;20499;-74
2021/06/20 08:55:51;;;;;;;4.60;3.37;;;;;;;26.20;55.09;94737.47;5114355;28;20471;-74
2021/06/20 08:58:21;;;;;;;6.33;3.03;;;;;;;26.44;55.00;94731.13;5114101;28;20508;-74
2021/06/20 09:00:51;;;;;;;3.57;3.20;;;;;;;26.57;55.35;94729.25;5061591;28;20484;-73
2021/06/20 09:03:19;;;;;;;3.95;2.80;;;;;;;26.69;53.37;94730.09;5112610;28;20461;-73
2021/06/20 09:06:00;;;;;;;5.33;3.00;;;;;;;26.49;53.25;94719.66;5114016;28;20321;-74
2021/06/20 09:08:29;;;;;;;7.80;3.23;;;;;;;26.55;53.35;94718.72;5113863;28;20903;-74
2021/06/20 09:10:56;;;;;;;3.93;2.47;;;;;;;26.74;54.48;94717.56;5114133;28;20451;-73
2021/06/20 09:13:23;;;;;;;12.03;2.90;;;;;;;26.85;49.89;94724.81;5114426;28;20447;-74
2021/06/20 09:16:01;;;;;;;8.20;3.13;;;;;;;26.73;51.60;94726.69;5113987;28;20455;-73
2021/06/20 09:18:28;;;;;;;2.47;2.27;;;;;;;26.83;52.18;94724.22;5113621;28;20452;-73
2021/06/20 09:20:56;;;;;;;3.30;3.00;;;;;;;26.99;49.23;94716.53;5113755;28;20447;-74
2021/06/20 09:23:23;;;;;;;2.87;2.67;;;;;;;27.32;51.20;94713.19;5113625;28;20492;-73
2021/06/20 09:25:59;;;;;;;4.13;3.57;;;;;;;27.40;50.33;94710.94;5113746;28;20994;-73
2021/06/20 09:28:32;;;;;;;3.47;3.00;;;;;;;27.14;50.68;94711.47;5061877;28;20449;-74
2021/06/20 09:31:02;;;;;;;3.03;2.77;;;;;;;27.02;50.55;94703.41;5113606;28;20791;-74
2021/06/20 09:33:31;;;;;;;3.40;2.57;;;;;;;27.10;50.95;94713.81;5113923;28;20521;-75
2021/06/20 09:35:59;;;;;;;2.70;2.50;;;;;;;26.94;50.58;94706.44;5113847;28;20439;-74
2021/06/20 09:38:28;;;;;;;3.83;2.50;;;;;;;26.79;51.86;94706.91;5113605;28;20496;-73
2021/06/20 09:41:02;;;;;;;2.77;2.57;;;;;;;26.51;51.39;94706.78;5063040;28;20456;-74
2021/06/20 09:43:30;;;;;;;3.53;2.60;;;;;;;26.31;52.76;94707.09;5113887;28;21056;-74
2021/06/20 09:45:57;;;;;;;2.70;2.50;;;;;;;26.06;53.51;94703.78;5113764;28;20505;-74
2021/06/20 09:48:28;;;;;;;2.50;2.30;;;;;;;25.89;53.90;94707.09;5114348;28;20930;-74
2021/06/20 09:50:56;;;;;;;3.10;2.70;;;;;;;25.82;54.24;94714.44;5062898;28;20447;-74
2021/06/20 09:53:33;;;;;;;4.67;2.77;;;;;;;25.79;56.18;94708.72;5113789;28;20492;-74
2021/06/20 09:56:14;;;;;;;3.33;2.80;;;;;;;25.65;56.70;94702.66;5113885;28;20446;-74
2021/06/20 09:58:44;;;;;;;3.23;2.80;;;;;;;25.62;58.19;94703.94;5113945;28;20446;-74
2021/06/20 10:01:12;;;;;;;3.00;2.80;;;;;;;25.31;58.57;94704.13;5114403;28;20522;-74
2021/06/20 10:03:41;;;;;;;3.80;2.87;;;;;;;24.95;60.25;94699.56;5113796;28;20937;-73
2021/06/20 10:06:09;;;;;;;5.60;3.10;;;;;;;25.02;60.63;94689.59;5113482;28;20486;-74
2021/06/20 10:08:36;;;;;;;3.40;3.10;;;;;;;24.73;60.48;94693.00;5113492;28;20449;-73
2021/06/20 10:11:03;;;;;;;2.87;2.57;;;;;;;24.55;61.54;94683.88;5113563;28;20504;-73
2021/06/20 10:13:30;;;;;;;4.67;3.53;;;;;;;24.67;61.39;94684.78;5114599;28;20465;-73
2021/06/20 10:16:11;;;;;;;4.40;3.30;;;;;;;24.65;59.60;94683.38;5117613;28;20549;-73
2021/06/20 10:18:41;;;;;;;4.03;3.03;;;;;;;24.75;60.16;94672.13;5117892;28;20445;-74
2021/06/20 10:21:08;;;;;;;3.33;2.83;;;;;;;24.91;61.23;94671.53;5117126;28;20799;-73
2021/06/20 10:23:35;;;;;;;6.60;3.00;;;;;;;25.03;60.51;94675.13;5117890;28;20519;-72
2021/06/20 10:26:06;;;;;;;2.70;2.50;;;;;;;25.04;58.77;94674.09;5117259;28;20515;-74
2021/06/20 10:28:34;;;;;;;3.03;2.73;;;;;;;24.94;58.94;94668.41;5117117;28;20492;-75
2021/06/20 10:31:08;;;;;;;2.90;2.50;;;;;;;24.75;58.82;94674.81;5064647;28;20438;-73
2021/06/20 10:33:37;;;;;;;3.30;2.50;;;;;;;24.66;61.67;94672.41;5116859;28;20438;-73
2021/06/20 10:36:09;;;;;;;5.13;3.83;;;;;;;24.58;59.76;94670.03;5117005;28;20445;-73
2021/06/20 10:38:39;;;;;;;4.60;3.77;;;;;;;24.83;61.18;94656.53;5117373;28;20458;-75
2021/06/20 10:41:06;;;;;;;3.20;3.00;;;;;;;24.97;58.66;94662.59;5116991;28;20486;-74
2021/06/20 10:43:34;;;;;;;3.10;2.80;;;;;;;25.12;57.39;94662.22;5116876;28;20563;-73
2021/06/20 10:46:01;;;;;;;9.13;2.77;;;;;;;25.22;57.75;94666.03;5116358;28;20526;-72
2021/06/20 10:48:35;;;;;;;2.50;2.30;;;;;;;25.32;58.60;94655.56;5116817;28;20506;-73
2021/06/20 10:51:03;;;;;;;3.03;2.80;;;;;;;25.44;55.95;94646.72;5116617;28;20800;-73
2021/06/20 10:53:41;;;;;;;2.97;2.77;;;;;;;25.38;58.13;94647.63;5064446;28;20760;-74
2021/06/20 10:56:19;;;;;;;3.47;2.63;;;;;;;25.20;59.69;94643.94;5063951;28;20471;-73
2021/06/20 10:58:49;;;;;;;3.60;2.77;;;;;;;25.07;59.93;94636.03;5116529;28;20446;-73
2021/06/20 11:01:18;;;;;;;2.63;2.43;;;;;;;25.03;60.32;94634.88;5116510;28;20575;-75
2021/06/20 11:03:59;;;;;;;3.97;2.60;;;;;;;25.02;60.00;94646.66;5116560;28;20466;-73
2021/06/20 11:06:27;;;;;;;3.77;2.80;;;;;;;25.15;58.89;94630.34;5116393;28;20482;-74
2021/06/20 11:09:00;;;;;;;3.33;2.40;;;;;;;25.45;60.99;94626.91;5116485;28;20447;-75
2021/06/20 11:11:28;;;;;;;2.50;2.30;;;;;;;25.53;55.80;94631.94;5116695;28;20450;-72
2021/06/20 11:14:05;;;;;;;2.40;2.20;;;;;;;25.51;57.47;94623.28;5116558;28;20445;-73
2021/06/20 11:16:34;;;;;;;3.20;2.40;;;;;;;25.59;55.96;94621.09;5116446;28;20450;-72
2021/06/20 11:19:09;;;;;;;2.70;2.50;;;;;;;25.67;57.24;94609.22;5116219;28;20447;-74
2021/06/20 11:21:39;;;;;;;2.80;2.60;;;;;;;25.90;57.10;94611.13;5116030;28;20443;-75
2021/06/20 11:24:08;;;;;;;1.90;1.70;;;;;;;26.08;54.61;94599.47;5115986;28;20918;-75
2021/06/20 11:26:36;;;;;;;3.30;1.87;;;;;;;26.20;52.81;94601.09;5115572;28;20836;-75
2021/06/20 11:29:05;;;;;;;2.63;2.10;;;;;;;26.10;50.63;94605.44;5116462;28;20495;-74
2021/06/20 11:31:32;;;;;;;4.50;2.00;;;;;;;26.08;51.06;94602.16;5064136;28;20922;-74
2021/06/20 11:33:59;;;;;;;2.40;2.30;;;;;;;26.00;50.97;94600.59;5116000;28;20439;-73
2021/06/20 11:36:28;;;;;;;2.03;1.83;;;;;;;25.94;51.75;94602.38;5115938;28;20449;-73
2021/06/20 11:38:55;;;;;;;4.27;2.30;;;;;;;25.90;52.13;94605.75;5116121;28;20445;-73